Time;durP1;ratioP1;P1;durP2;ratioP2;P2;SDS_P1;SDS_P2;PMS_P1;PMS_P2;Temp;Humidity;BMP_temperature;BMP_pressure;BME280_temperature;BME280_humidity;BME280_pressure;Samples;Min_cycle;Max_cycle;Signal;HPM_P1;HPM_P2
2022/05/05 00:02:14;;;;;;;9.87;2.90;;;;;;;;;;5039277;28;20581;-63
2022/05/05 00:04:41;;;;;;;9.37;2.67;;;;;;;;;;5027973;28;20774;-63
2022/05/05 00:07:25;;;;;;;4.63;2.27;;;;;;;;;;5028307;28;20429;-63
2022/05/05 00:09:52;;;;;;;5.93;2.67;;;;;;;;;;5028451;28;20448;-63
2022/05/05 00:15:07;;;;;;;8.80;2.80;;;;;;;;;;5028106;28;20187;-63
2022/05/05 00:17:34;;;;;;;6.83;2.67;;;;;;;;;;5028299;28;20465;-63
2022/05/05 00:20:01;;;;;;;6.13;2.60;;;;;;;;;;5017525;28;20219;-63
2022/05/05 00:22:27;;;;;;;5.33;2.77;;;;;;;;;;5008497;28;20780;-63
2022/05/05 00:24:54;;;;;;;4.93;2.23;;;;;;;;;;5008390;28;20235;-63
2022/05/05 00:27:22;;;;;;;5.67;2.30;;;;;;;;;;5008298;28;20446;-63
2022/05/05 00:30:07;;;;;;;6.57;2.70;;;;;;;;;;5007347;28;20430;-63
2022/05/05 00:32:34;;;;;;;9.03;2.63;;;;;;;;;;5007681;28;20199;-63
2022/05/05 00:35:00;;;;;;;4.17;2.40;;;;;;;;;;5008416;28;20299;-63
2022/05/05 00:37:27;;;;;;;4.23;2.30;;;;;;;;;;5008352;28;20196;-63
2022/05/05 00:39:54;;;;;;;3.90;2.13;;;;;;;;;;5029205;28;20309;-63
2022/05/05 00:42:21;;;;;;;5.63;2.47;;;;;;;;;;5045492;28;20195;-63
2022/05/05 00:44:48;;;;;;;4.57;2.47;;;;;;;;;;5010605;28;20446;-63
2022/05/05 00:47:16;;;;;;;4.73;2.47;;;;;;;;;;5028333;28;20225;-64
2022/05/05 00:49:45;;;;;;;7.20;2.33;;;;;;;;;;5027393;28;20195;-63
2022/05/05 00:52:12;;;;;;;3.97;2.17;;;;;;;;;;5010572;28;20205;-63
2022/05/05 00:54:39;;;;;;;5.77;2.20;;;;;;;;;;5027844;28;20200;-63
2022/05/05 00:57:06;;;;;;;5.20;1.90;;;;;;;;;;5027826;28;20294;-63
2022/05/05 00:59:33;;;;;;;4.23;2.20;;;;;;;;;;5027685;28;20207;-63
2022/05/05 01:01:59;;;;;;;6.97;2.47;;;;;;;;;;5011509;28;20248;-63
2022/05/05 01:04:26;;;;;;;3.70;2.20;;;;;;;;;;5008119;28;20192;-63
2022/05/05 01:06:53;;;;;;;4.30;2.50;;;;;;;;;;5008192;28;20188;-63
2022/05/05 01:09:20;;;;;;;4.37;2.20;;;;;;;;;;5007675;28;20263;-63
2022/05/05 01:11:46;;;;;;;5.80;2.40;;;;;;;;;;5008088;28;20916;-63
2022/05/05 01:14:17;;;;;;;6.93;2.53;;;;;;;;;;5008459;28;20639;-63
2022/05/05 01:16:43;;;;;;;6.20;2.20;;;;;;;;;;5007953;28;20251;-63
2022/05/05 01:19:10;;;;;;;4.80;2.57;;;;;;;;;;5007744;28;20207;-63
2022/05/05 01:21:37;;;;;;;7.03;2.37;;;;;;;;;;5007741;28;20192;-63
2022/05/05 01:24:04;;;;;;;6.37;1.90;;;;;;;;;;5007528;28;20238;-63
2022/05/05 01:29:16;;;;;;;5.07;2.40;;;;;;;;;;5008124;28;20824;-63
2022/05/05 01:31:44;;;;;;;4.30;2.17;;;;;;;;;;5007344;28;20200;-63
2022/05/05 01:34:10;;;;;;;5.23;2.33;;;;;;;;;;4990370;28;20226;-63
2022/05/05 01:36:37;;;;;;;4.83;1.97;;;;;;;;;;4990216;28;20204;-63
2022/05/05 01:39:04;;;;;;;6.83;2.60;;;;;;;;;;5015231;28;20207;-63
2022/05/05 01:41:31;;;;;;;7.97;2.30;;;;;;;;;;5047318;28;20186;-63
2022/05/05 01:43:58;;;;;;;8.20;2.53;;;;;;;;;;5049455;28;20191;-63
2022/05/05 01:46:25;;;;;;;4.63;2.33;;;;;;;;;;5025739;28;20206;-63
2022/05/05 01:48:51;;;;;;;4.83;2.17;;;;;;;;;;5011302;28;20642;-64
2022/05/05 01:51:18;;;;;;;4.47;2.23;;;;;;;;;;5011199;28;20200;-63
2022/05/05 01:53:47;;;;;;;4.70;2.60;;;;;;;;;;5011169;28;20180;-63
2022/05/05 01:56:14;;;;;;;6.20;2.60;;;;;;;;;;5011295;28;20267;-63
2022/05/05 01:58:44;;;;;;;9.27;2.43;;;;;;;;;;5011069;28;20251;-63
2022/05/05 02:01:11;;;;;;;5.20;2.33;;;;;;;;;;5011083;28;20731;-63
2022/05/05 02:03:38;;;;;;;7.70;2.30;;;;;;;;;;4993842;28;20262;-63
2022/05/05 02:06:05;;;;;;;5.83;2.30;;;;;;;;;;5012900;28;20243;-63
2022/05/05 02:08:32;;;;;;;9.03;2.50;;;;;;;;;;5013468;28;20540;-63
2022/05/05 02:10:59;;;;;;;3.27;2.27;;;;;;;;;;5025552;28;20187;-63
2022/05/05 02:13:26;;;;;;;4.33;2.03;;;;;;;;;;5030745;28;20187;-63
2022/05/05 02:15:52;;;;;;;4.57;2.17;;;;;;;;;;5013214;28;20180;-63
2022/05/05 02:18:20;;;;;;;3.93;1.90;;;;;;;;;;5030184;28;20187;-63
2022/05/05 02:20:47;;;;;;;4.43;2.30;;;;;;;;;;5030326;28;20227;-63
2022/05/05 02:23:15;;;;;;;5.67;2.30;;;;;;;;;;5030994;28;20535;-63
2022/05/05 02:25:42;;;;;;;5.63;2.07;;;;;;;;;;5002337;28;20200;-63
2022/05/05 02:28:09;;;;;;;9.53;2.40;;;;;;;;;;4991064;28;20193;-64
2022/05/05 02:30:36;;;;;;;5.93;2.40;;;;;;;;;;4990783;28;20295;-63
2022/05/05 02:33:03;;;;;;;4.53;2.03;;;;;;;;;;4991193;28;20224;-63
2022/05/05 02:35:31;;;;;;;5.50;2.43;;;;;;;;;;4990498;28;20189;-63
2022/05/05 02:40:43;;;;;;;5.43;2.63;;;;;;;;;;5024446;28;20211;-63
2022/05/05 02:43:10;;;;;;;7.03;2.70;;;;;;;;;;5029831;28;20238;-63
2022/05/05 02:45:37;;;;;;;5.90;2.10;;;;;;;;;;5030123;28;20192;-63
2022/05/05 02:48:04;;;;;;;6.17;2.60;;;;;;;;;;5029938;28;20197;-63
2022/05/05 02:50:31;;;;;;;4.33;2.33;;;;;;;;;;5028883;28;20559;-63
2022/05/05 02:52:58;;;;;;;4.30;2.23;;;;;;;;;;4991121;28;20560;-62
2022/05/05 02:55:25;;;;;;;4.70;2.37;;;;;;;;;;4989408;28;20699;-63
2022/05/05 02:57:52;;;;;;;7.57;2.57;;;;;;;;;;4990485;28;20197;-63
2022/05/05 03:00:20;;;;;;;4.43;2.40;;;;;;;;;;4990639;28;20296;-63
2022/05/05 03:02:47;;;;;;;7.03;2.27;;;;;;;;;;4990231;28;20197;-63
2022/05/05 03:05:14;;;;;;;4.47;2.30;;;;;;;;;;4990552;28;20255;-63
2022/05/05 03:07:41;;;;;;;8.70;2.40;;;;;;;;;;4995107;28;20227;-63
2022/05/05 03:10:08;;;;;;;4.97;2.37;;;;;;;;;;4992556;28;20192;-63
2022/05/05 03:12:35;;;;;;;6.17;2.30;;;;;;;;;;5009635;28;20196;-63
2022/05/05 03:15:02;;;;;;;6.97;2.50;;;;;;;;;;5009550;28;20342;-62
2022/05/05 03:17:29;;;;;;;6.10;2.30;;;;;;;;;;5009916;28;20319;-63
2022/05/05 03:19:56;;;;;;;4.67;2.20;;;;;;;;;;5009828;28;20204;-63
2022/05/05 03:22:23;;;;;;;3.73;2.30;;;;;;;;;;5009398;28;20188;-63
2022/05/05 03:24:50;;;;;;;6.83;2.50;;;;;;;;;;5021986;28;20215;-63
2022/05/05 03:27:17;;;;;;;4.60;2.20;;;;;;;;;;5029207;28;20214;-63
2022/05/05 03:29:43;;;;;;;5.20;2.20;;;;;;;;;;5025778;28;20722;-63
2022/05/05 03:32:10;;;;;;;5.30;2.33;;;;;;;;;;5028014;28;20782;-63
2022/05/05 03:34:37;;;;;;;6.17;2.33;;;;;;;;;;5029368;28;20689;-62
2022/05/05 03:37:04;;;;;;;6.67;2.27;;;;;;;;;;5028844;28;20187;-62
2022/05/05 03:39:30;;;;;;;3.33;2.00;;;;;;;;;;5024396;28;20258;-65
2022/05/05 03:41:57;;;;;;;7.27;2.30;;;;;;;;;;5025494;28;20210;-62
2022/05/05 03:44:24;;;;;;;4.00;2.07;;;;;;;;;;5027627;28;20204;-64
2022/05/05 03:46:52;;;;;;;4.27;2.20;;;;;;;;;;5014876;28;20203;-64
2022/05/05 03:49:18;;;;;;;5.43;2.00;;;;;;;;;;5028351;28;20760;-65
2022/05/05 03:51:45;;;;;;;5.97;2.50;;;;;;;;;;5024294;28;20192;-64
2022/05/05 03:54:12;;;;;;;5.53;2.53;;;;;;;;;;5028470;28;20197;-65
2022/05/05 03:56:39;;;;;;;5.63;2.40;;;;;;;;;;5027415;28;20195;-63
2022/05/05 03:59:06;;;;;;;5.17;2.53;;;;;;;;;;5030755;28;20273;-63
2022/05/05 04:01:33;;;;;;;6.83;2.60;;;;;;;;;;5027579;28;20227;-64
2022/05/05 04:04:00;;;;;;;4.27;2.40;;;;;;;;;;5027437;28;20200;-65
2022/05/05 04:06:27;;;;;;;5.33;2.73;;;;;;;;;;5033696;28;20195;-64
2022/05/05 04:08:54;;;;;;;5.67;2.10;;;;;;;;;;5028390;28;20199;-65
2022/05/05 04:11:21;;;;;;;8.87;2.30;;;;;;;;;;5029899;28;20203;-65
2022/05/05 04:13:48;;;;;;;6.50;2.67;;;;;;;;;;5028822;28;20183;-65
2022/05/05 04:16:14;;;;;;;6.17;2.37;;;;;;;;;;5028328;28;20658;-64
2022/05/05 04:18:41;;;;;;;5.97;2.63;;;;;;;;;;5015352;28;20199;-65
2022/05/05 04:21:09;;;;;;;6.77;2.50;;;;;;;;;;5031907;28;20223;-64
2022/05/05 04:23:37;;;;;;;5.37;2.87;;;;;;;;;;5028629;28;20226;-64
2022/05/05 04:26:09;;;;;;;5.67;2.33;;;;;;;;;;5029591;28;20689;-64
2022/05/05 04:28:36;;;;;;;8.30;2.90;;;;;;;;;;5023804;28;20211;-65
2022/05/05 04:31:03;;;;;;;8.37;2.63;;;;;;;;;;5013593;28;20225;-65
2022/05/05 04:33:30;;;;;;;10.23;2.70;;;;;;;;;;5030099;28;20307;-63
2022/05/05 04:35:57;;;;;;;9.30;2.80;;;;;;;;;;5026566;28;20195;-64
2022/05/05 04:38:24;;;;;;;6.60;3.10;;;;;;;;;;5023325;28;20556;-64
2022/05/05 04:40:50;;;;;;;7.80;2.70;;;;;;;;;;5016506;28;20234;-64
2022/05/05 04:43:18;;;;;;;9.53;2.77;;;;;;;;;;4994932;28;20211;-63
2022/05/05 04:45:45;;;;;;;8.53;2.70;;;;;;;;;;5032530;28;20187;-62
2022/05/05 04:48:11;;;;;;;8.07;2.90;;;;;;;;;;5028520;28;20262;-62
2022/05/05 04:50:38;;;;;;;14.23;3.10;;;;;;;;;;5030758;28;20187;-63
2022/05/05 04:53:05;;;;;;;11.20;3.60;;;;;;;;;;5030718;28;20282;-63
2022/05/05 04:55:32;;;;;;;7.50;2.70;;;;;;;;;;5027287;28;20710;-63
2022/05/05 04:57:59;;;;;;;6.80;3.20;;;;;;;;;;5026714;28;20658;-63
2022/05/05 05:00:25;;;;;;;8.10;3.10;;;;;;;;;;5028966;28;20216;-63
2022/05/05 05:02:52;;;;;;;9.10;2.50;;;;;;;;;;5031230;28;20191;-63
2022/05/05 05:05:19;;;;;;;8.77;3.10;;;;;;;;;;5023840;28;20192;-63
2022/05/05 05:07:46;;;;;;;11.07;2.60;;;;;;;;;;5031520;28;21116;-64
2022/05/05 05:10:13;;;;;;;7.77;2.40;;;;;;;;;;5030405;28;20265;-63
2022/05/05 05:12:40;;;;;;;5.27;2.33;;;;;;;;;;5023097;28;20206;-62
2022/05/05 05:15:07;;;;;;;6.20;2.73;;;;;;;;;;5024568;28;20290;-63
2022/05/05 05:17:34;;;;;;;7.00;2.93;;;;;;;;;;5000628;28;20195;-63
2022/05/05 05:20:03;;;;;;;10.37;2.67;;;;;;;;;;5027379;28;20215;-64
2022/05/05 05:22:30;;;;;;;10.80;3.17;;;;;;;;;;5035303;28;20666;-62
2022/05/05 05:24:57;;;;;;;9.63;3.27;;;;;;;;;;5037024;28;20238;-63
2022/05/05 05:27:24;;;;;;;8.13;3.33;;;;;;;;;;5038865;28;20261;-62
2022/05/05 05:29:51;;;;;;;11.20;3.07;;;;;;;;;;5033100;28;20194;-62
2022/05/05 05:32:17;;;;;;;9.77;3.13;;;;;;;;;;5030803;28;20206;-62
2022/05/05 05:34:44;;;;;;;10.70;3.57;;;;;;;;;;5029470;28;20257;-64
2022/05/05 05:37:11;;;;;;;7.27;2.70;;;;;;;;;;5028602;28;20241;-63
2022/05/05 05:39:38;;;;;;;7.57;2.70;;;;;;;;;;5039559;28;20572;-64
2022/05/05 05:42:06;;;;;;;7.23;3.20;;;;;;;;;;5050798;28;20339;-64
2022/05/05 05:44:50;;;;;;;7.50;2.93;;;;;;;;;;5051045;28;20256;-64
2022/05/05 05:47:17;;;;;;;15.60;3.10;;;;;;;;;;5051385;28;20198;-64
2022/05/05 05:50:02;;;;;;;9.70;3.53;;;;;;;;;;5048320;28;20248;-63
2022/05/05 05:52:28;;;;;;;9.47;3.27;;;;;;;;;;5053490;28;20274;-63
2022/05/05 05:55:13;;;;;;;11.83;3.57;;;;;;;;;;5053685;28;20197;-63
2022/05/05 05:57:40;;;;;;;9.77;3.23;;;;;;;;;;5050407;28;20225;-62
2022/05/05 06:00:24;;;;;;;15.90;4.60;;;;;;;;;;5050183;28;20687;-63
2022/05/05 06:05:53;;;;;;;10.97;4.20;;;;;;;;;;5049250;28;20280;-63
2022/05/05 06:08:20;;;;;;;11.93;4.43;;;;;;;;;;5044515;28;20274;-63
2022/05/05 06:11:05;;;;;;;10.47;4.50;;;;;;;;;;5039615;28;20537;-64
2022/05/05 06:13:32;;;;;;;10.50;4.23;;;;;;;;;;5037221;28;20194;-67
2022/05/05 06:15:59;;;;;;;11.47;4.13;;;;;;;;;;5039410;28;20960;-65
2022/05/05 06:18:26;;;;;;;13.00;5.50;;;;;;;;;;5036243;28;20217;-64
2022/05/05 06:20:53;;;;;;;13.97;4.63;;;;;;;;;;5040852;28;20206;-63
2022/05/05 06:23:20;;;;;;;8.80;3.97;;;;;;;;;;5038337;28;20187;-64
2022/05/05 06:25:47;;;;;;;9.97;3.87;;;;;;;;;;5036950;28;20218;-64
2022/05/05 06:28:14;;;;;;;7.87;4.30;;;;;;;;;;5038255;28;20689;-63
2022/05/05 06:30:41;;;;;;;9.37;4.00;;;;;;;;;;5037576;28;20319;-64
2022/05/05 06:33:08;;;;;;;7.20;3.77;;;;;;;;;;5041888;28;20469;-65
2022/05/05 06:35:36;;;;;;;8.57;3.43;;;;;;;;;;5036959;28;20183;-64
2022/05/05 06:38:04;;;;;;;9.20;3.90;;;;;;;;;;5038329;28;20295;-64
2022/05/05 06:40:31;;;;;;;9.47;4.07;;;;;;;;;;5038990;28;20646;-65
2022/05/05 06:42:58;;;;;;;6.63;3.70;;;;;;;;;;5039632;28;20221;-63
2022/05/05 06:45:25;;;;;;;10.20;3.67;;;;;;;;;;5012799;28;20202;-63
2022/05/05 06:47:52;;;;;;;9.43;3.53;;;;;;;;;;5038216;28;20203;-65
2022/05/05 06:50:21;;;;;;;7.73;3.60;;;;;;;;;;5035244;28;20201;-63
2022/05/05 06:52:48;;;;;;;8.90;3.57;;;;;;;;;;5040208;28;20199;-63
2022/05/05 06:55:15;;;;;;;10.17;3.90;;;;;;;;;;5042097;28;20194;-63
2022/05/05 06:57:43;;;;;;;10.17;4.30;;;;;;;;;;5009264;28;20249;-64
2022/05/05 07:00:11;;;;;;;10.53;3.50;;;;;;;;;;5037434;28;20264;-63
2022/05/05 07:02:38;;;;;;;10.93;4.67;;;;;;;;;;5033588;28;20528;-65
2022/05/05 07:05:23;;;;;;;10.37;4.33;;;;;;;;;;5039140;28;20179;-63
2022/05/05 07:07:50;;;;;;;8.93;3.50;;;;;;;;;;5034351;28;20200;-65
2022/05/05 07:13:03;;;;;;;8.07;4.37;;;;;;;;;;5038089;28;20742;-63
2022/05/05 07:15:31;;;;;;;8.50;4.20;;;;;;;;;;5037644;28;20308;-63
2022/05/05 07:17:59;;;;;;;7.50;4.20;;;;;;;;;;5037758;28;20230;-63
2022/05/05 07:20:25;;;;;;;9.43;4.57;;;;;;;;;;5037021;28;20683;-64
2022/05/05 07:22:52;;;;;;;10.03;4.53;;;;;;;;;;5037638;28;21462;-63
2022/05/05 07:25:19;;;;;;;10.03;4.33;;;;;;;;;;5035069;28;20231;-63
2022/05/05 07:27:46;;;;;;;8.60;3.97;;;;;;;;;;5009705;28;20325;-64
2022/05/05 07:30:13;;;;;;;11.80;3.90;;;;;;;;;;5038082;28;20191;-65
2022/05/05 07:32:41;;;;;;;8.57;3.73;;;;;;;;;;5036904;28;20195;-64
2022/05/05 07:35:09;;;;;;;10.43;4.03;;;;;;;;;;5033887;28;20896;-64
2022/05/05 07:37:37;;;;;;;10.80;4.40;;;;;;;;;;5037555;28;20206;-65
2022/05/05 07:40:05;;;;;;;7.20;3.70;;;;;;;;;;5039217;28;20202;-65
2022/05/05 07:42:35;;;;;;;9.60;4.23;;;;;;;;;;5038787;28;20219;-64
2022/05/05 07:45:03;;;;;;;9.83;4.50;;;;;;;;;;5040178;28;20203;-65
2022/05/05 07:47:36;;;;;;;10.93;5.00;;;;;;;;;;5040274;28;20666;-65
2022/05/05 07:50:03;;;;;;;8.63;4.87;;;;;;;;;;5039131;28;20196;-65
2022/05/05 07:52:47;;;;;;;9.03;4.73;;;;;;;;;;5039074;28;20228;-63
2022/05/05 07:55:14;;;;;;;8.60;4.47;;;;;;;;;;5039304;28;20276;-66
2022/05/05 07:57:43;;;;;;;10.50;4.77;;;;;;;;;;5036402;28;20880;-65
2022/05/05 08:00:11;;;;;;;10.70;4.60;;;;;;;;;;5034386;28;20625;-64
2022/05/05 08:02:38;;;;;;;9.90;4.97;;;;;;;;;;5039030;28;20314;-65
2022/05/05 08:05:07;;;;;;;12.90;5.17;;;;;;;;;;5033512;28;20213;-63
2022/05/05 08:07:34;;;;;;;10.57;4.83;;;;;;;;;;5039270;28;20190;-63
2022/05/05 08:10:00;;;;;;;10.30;4.97;;;;;;;;;;5037479;28;20212;-65
2022/05/05 08:12:28;;;;;;;12.83;5.30;;;;;;;;;;5038190;28;20268;-63
2022/05/05 08:14:55;;;;;;;8.50;4.60;;;;;;;;;;5037074;28;20895;-62
2022/05/05 08:17:23;;;;;;;7.63;5.00;;;;;;;;;;5034541;28;20191;-62
2022/05/05 08:19:50;;;;;;;9.70;5.00;;;;;;;;;;5036073;28;20196;-63
2022/05/05 08:22:17;;;;;;;10.63;5.40;;;;;;;;;;5036958;28;20721;-63
2022/05/05 08:30:15;;;;;;;20.87;7.20;;;;;;;;;;5022081;28;20207;-64
2022/05/05 08:32:43;;;;;;;16.50;8.10;;;;;;;;;;5021415;28;20195;-64
2022/05/05 08:35:10;;;;;;;12.70;6.80;;;;;;;;;;5022296;28;20270;-65
2022/05/05 08:37:37;;;;;;;13.10;6.20;;;;;;;;;;5019933;28;20548;-63
2022/05/05 08:40:05;;;;;;;11.70;5.77;;;;;;;;;;5023202;28;20190;-63
2022/05/05 08:42:49;;;;;;;14.20;4.87;;;;;;;;;;5027900;28;20229;-62
2022/05/05 08:45:16;;;;;;;8.70;4.80;;;;;;;;;;5024818;28;20271;-63
2022/05/05 08:47:45;;;;;;;8.57;4.77;;;;;;;;;;5023573;28;20246;-65
2022/05/05 08:50:11;;;;;;;8.30;4.40;;;;;;;;;;5021072;28;20220;-65
2022/05/05 08:52:40;;;;;;;17.07;5.43;;;;;;;;;;5015184;28;20203;-63
2022/05/05 08:55:07;;;;;;;8.87;4.90;;;;;;;;;;5022472;28;20227;-64
2022/05/05 08:57:34;;;;;;;7.90;4.67;;;;;;;;;;5026298;28;20187;-64
2022/05/05 09:00:01;;;;;;;6.63;4.77;;;;;;;;;;5024500;28;20925;-64
2022/05/05 09:02:28;;;;;;;9.80;5.40;;;;;;;;;;5023978;28;20227;-64
2022/05/05 09:04:55;;;;;;;8.47;4.67;;;;;;;;;;5022847;28;20195;-63
2022/05/05 09:07:24;;;;;;;8.77;5.03;;;;;;;;;;5024245;28;20285;-64
2022/05/05 09:09:51;;;;;;;7.30;4.77;;;;;;;;;;5010386;28;20180;-64
2022/05/05 09:12:21;;;;;;;7.80;4.60;;;;;;;;;;5025039;28;20203;-65
2022/05/05 09:14:49;;;;;;;7.47;4.60;;;;;;;;;;5022734;28;20198;-65
2022/05/05 09:17:17;;;;;;;7.77;4.67;;;;;;;;;;5025353;28;20611;-65
2022/05/05 09:19:45;;;;;;;10.77;4.87;;;;;;;;;;5023177;28;20195;-64
2022/05/05 09:22:12;;;;;;;9.17;4.57;;;;;;;;;;5024316;28;20226;-65
2022/05/05 09:24:43;;;;;;;8.80;4.83;;;;;;;;;;5035015;28;20238;-66
2022/05/05 09:27:14;;;;;;;10.10;4.83;;;;;;;;;;5039260;28;20556;-65
2022/05/05 09:29:41;;;;;;;7.50;5.03;;;;;;;;;;5038020;28;20214;-65
2022/05/05 09:32:12;;;;;;;7.70;4.50;;;;;;;;;;5017547;28;20273;-65
2022/05/05 09:34:39;;;;;;;8.13;4.60;;;;;;;;;;5038944;28;20207;-63
2022/05/05 09:37:18;;;;;;;7.60;4.33;;;;;;;;;;5040941;28;20265;-65
2022/05/05 09:39:45;;;;;;;8.73;4.67;;;;;;;;;;5041586;28;20213;-65
2022/05/05 09:42:11;;;;;;;7.77;4.47;;;;;;;;;;5016610;28;20368;-63
2022/05/05 09:44:45;;;;;;;6.00;4.37;;;;;;;;;;5037185;28;20334;-66
2022/05/05 09:47:15;;;;;;;7.37;4.40;;;;;;;;;;5014629;28;20202;-65
2022/05/05 09:49:56;;;;;;;8.67;4.60;;;;;;;;;;5012660;28;20649;-64
2022/05/05 09:57:55;;;;;;;10.63;5.60;;;;;;;;;;5040070;28;20641;-64
2022/05/05 10:05:41;;;;;;;9.60;5.87;;;;;;;;;;5033701;28;20849;-63
2022/05/05 10:08:09;;;;;;;11.17;6.23;;;;;;;;;;5037099;28;20201;-63
2022/05/05 10:10:37;;;;;;;9.03;5.73;;;;;;;;;;5039867;28;20215;-64
2022/05/05 10:13:05;;;;;;;10.10;6.60;;;;;;;;;;5041237;28;20272;-63
2022/05/05 10:15:32;;;;;;;11.10;6.07;;;;;;;;;;5040674;28;20272;-62
2022/05/05 10:18:19;;;;;;;9.73;6.57;;;;;;;;;;5037146;28;20195;-63
2022/05/05 10:20:46;;;;;;;9.80;6.37;;;;;;;;;;5018999;28;20856;-64
2022/05/05 10:23:17;;;;;;;10.87;6.90;;;;;;;;;;5023727;28;20257;-64
2022/05/05 10:25:50;;;;;;;10.70;6.40;;;;;;;;;;5036092;28;20728;-65
2022/05/05 10:28:36;;;;;;;11.73;7.50;;;;;;;;;;5026889;28;20310;-63
2022/05/05 10:31:03;;;;;;;9.77;7.13;;;;;;;;;;5036074;28;20198;-65
2022/05/05 10:33:59;;;;;;;11.90;7.53;;;;;;;;;;5033403;28;20179;-64
2022/05/05 10:36:27;;;;;;;9.77;7.47;;;;;;;;;;5036790;28;20206;-64
2022/05/05 10:38:53;;;;;;;11.97;7.90;;;;;;;;;;5040667;28;20257;-65
2022/05/05 10:41:39;;;;;;;14.63;8.03;;;;;;;;;;5037740;28;21047;-62
2022/05/05 10:44:24;;;;;;;10.80;7.07;;;;;;;;;;5038320;28;20298;-63
2022/05/05 10:46:56;;;;;;;13.07;8.60;;;;;;;;;;5025246;28;20765;-63
2022/05/05 10:49:39;;;;;;;11.70;8.20;;;;;;;;;;5040372;28;20219;-64
2022/05/05 10:52:11;;;;;;;13.00;8.63;;;;;;;;;;5036449;28;20833;-64
2022/05/05 10:54:56;;;;;;;14.13;9.27;;;;;;;;;;5032162;28;20571;-64
2022/05/05 10:57:26;;;;;;;12.10;10.07;;;;;;;;;;5031863;28;20186;-64
2022/05/05 11:00:08;;;;;;;12.17;8.87;;;;;;;;;;5039384;28;20192;-64
2022/05/05 11:02:35;;;;;;;14.00;8.57;;;;;;;;;;5037890;28;20239;-63
2022/05/05 11:05:20;;;;;;;12.57;8.93;;;;;;;;;;5027304;28;20207;-63
2022/05/05 11:07:51;;;;;;;13.90;9.60;;;;;;;;;;5036631;28;20206;-64
2022/05/05 11:10:45;;;;;;;14.50;9.97;;;;;;;;;;5038841;28;20462;-63
2022/05/05 11:13:30;;;;;;;11.93;9.03;;;;;;;;;;5029767;28;20269;-63
2022/05/05 11:22:08;;;;;;;12.63;8.87;;;;;;;;;;5033005;28;20243;-64
2022/05/05 11:24:36;;;;;;;12.70;8.53;;;;;;;;;;5026374;28;20222;-64
2022/05/05 11:27:03;;;;;;;11.37;8.33;;;;;;;;;;5021288;28;21627;-65
2022/05/05 11:29:30;;;;;;;14.50;8.90;;;;;;;;;;5020394;28;20849;-66
2022/05/05 11:31:58;;;;;;;10.37;8.37;;;;;;;;;;5022399;28;20208;-65
2022/05/05 11:34:34;;;;;;;10.40;8.50;;;;;;;;;;5021362;28;20235;-63
2022/05/05 11:37:01;;;;;;;10.97;8.30;;;;;;;;;;5021640;28;20199;-65
2022/05/05 11:39:29;;;;;;;10.20;7.67;;;;;;;;;;5021881;28;20579;-64
2022/05/05 11:42:14;;;;;;;7.63;6.80;;;;;;;;;;5020753;28;20297;-65
2022/05/05 11:44:41;;;;;;;10.27;8.07;;;;;;;;;;5020920;28;20290;-64
2022/05/05 11:47:18;;;;;;;10.50;8.43;;;;;;;;;;5021633;28;20207;-64
2022/05/05 11:49:46;;;;;;;11.30;8.50;;;;;;;;;;5013067;28;20669;-64
2022/05/05 11:52:19;;;;;;;11.03;7.87;;;;;;;;;;5021283;28;20218;-65
2022/05/05 11:54:47;;;;;;;10.63;8.00;;;;;;;;;;5020564;28;20201;-65
2022/05/05 11:57:33;;;;;;;12.33;8.87;;;;;;;;;;5007598;28;20286;-65
2022/05/05 12:03:04;;;;;;;9.93;7.40;;;;;;;;;;5020246;28;20215;-64
2022/05/05 12:05:32;;;;;;;10.17;7.77;;;;;;;;;;5020872;28;20199;-66
2022/05/05 12:07:59;;;;;;;12.03;7.93;;;;;;;;;;5031977;28;20187;-66
2022/05/05 12:10:33;;;;;;;11.53;7.80;;;;;;;;;;5030534;28;20654;-65
2022/05/05 12:13:01;;;;;;;12.23;8.63;;;;;;;;;;5020716;28;20202;-64
2022/05/05 12:15:28;;;;;;;11.40;8.67;;;;;;;;;;5020704;28;20302;-65
2022/05/05 12:17:59;;;;;;;13.63;9.73;;;;;;;;;;5021399;28;20192;-64
2022/05/05 12:20:28;;;;;;;12.73;9.40;;;;;;;;;;5020139;28;20200;-63
2022/05/05 12:22:56;;;;;;;11.17;9.07;;;;;;;;;;5020572;28;20632;-63
2022/05/05 12:25:24;;;;;;;13.63;9.70;;;;;;;;;;5004229;28;20241;-63
2022/05/05 12:27:53;;;;;;;14.70;12.53;;;;;;;;;;5017072;28;20630;-65
2022/05/05 12:30:37;;;;;;;13.30;11.23;;;;;;;;;;5015255;28;20834;-64
2022/05/05 12:33:04;;;;;;;13.47;11.10;;;;;;;;;;5016815;28;20651;-64
2022/05/05 12:35:38;;;;;;;14.43;11.60;;;;;;;;;;5013847;28;20241;-64
2022/05/05 12:38:06;;;;;;;14.47;11.50;;;;;;;;;;5003614;28;20198;-64
2022/05/05 12:40:35;;;;;;;15.03;12.13;;;;;;;;;;5015499;28;20570;-64
2022/05/05 12:43:30;;;;;;;16.37;12.67;;;;;;;;;;5001651;28;20250;-64
2022/05/05 12:46:00;;;;;;;16.87;12.90;;;;;;;;;;5014415;28;20207;-64
2022/05/05 12:48:27;;;;;;;15.63;13.27;;;;;;;;;;5001484;28;20215;-65
2022/05/05 12:50:54;;;;;;;14.67;12.43;;;;;;;;;;5015624;28;20191;-63
2022/05/05 13:01:47;;;;;;;19.60;12.23;;;;;;;;;;5022298;28;20184;-63
2022/05/05 13:04:32;;;;;;;17.83;12.47;;;;;;;;;;5008165;28;20171;-64
2022/05/05 13:06:59;;;;;;;15.03;11.47;;;;;;;;;;4990767;28;20199;-63
2022/05/05 13:09:26;;;;;;;13.93;11.00;;;;;;;;;;5008007;28;20614;-64
2022/05/05 13:11:53;;;;;;;13.73;11.50;;;;;;;;;;5007853;28;20243;-63
2022/05/05 13:14:20;;;;;;;14.43;11.40;;;;;;;;;;5008414;28;20200;-63
2022/05/05 13:16:47;;;;;;;22.50;17.80;;;;;;;;;;5007714;28;20250;-64
2022/05/05 13:19:14;;;;;;;15.90;13.00;;;;;;;;;;4990854;28;20268;-63
2022/05/05 13:21:42;;;;;;;16.87;12.93;;;;;;;;;;5007283;28;20191;-63
2022/05/05 13:24:09;;;;;;;17.50;12.77;;;;;;;;;;5014918;28;20666;-64
2022/05/05 13:26:37;;;;;;;14.67;12.13;;;;;;;;;;5027819;28;20211;-64
2022/05/05 13:29:04;;;;;;;15.50;12.40;;;;;;;;;;5027357;28;20187;-65
2022/05/05 13:31:31;;;;;;;14.90;11.90;;;;;;;;;;5027242;28;20270;-64
2022/05/05 13:33:58;;;;;;;14.73;12.60;;;;;;;;;;5027681;28;20183;-64
2022/05/05 13:36:26;;;;;;;16.17;12.20;;;;;;;;;;5027194;28;20187;-64
2022/05/05 13:38:53;;;;;;;15.13;12.50;;;;;;;;;;5029620;28;20278;-64
2022/05/05 13:41:35;;;;;;;16.20;11.70;;;;;;;;;;5051197;28;20175;-65
2022/05/05 13:44:03;;;;;;;14.60;11.50;;;;;;;;;;5050832;28;20211;-64
2022/05/05 13:46:30;;;;;;;12.83;11.07;;;;;;;;;;5050865;28;20681;-64
2022/05/05 13:48:57;;;;;;;14.30;11.60;;;;;;;;;;5051353;28;20198;-64
2022/05/05 13:51:24;;;;;;;14.20;11.40;;;;;;;;;;5050654;28;20195;-64
2022/05/05 13:53:53;;;;;;;13.60;11.47;;;;;;;;;;5033556;28;20197;-64
2022/05/05 13:56:19;;;;;;;13.67;11.43;;;;;;;;;;5049963;28;20205;-64
2022/05/05 13:58:46;;;;;;;13.87;11.27;;;;;;;;;;5050922;28;20205;-64
2022/05/05 14:01:13;;;;;;;14.00;12.43;;;;;;;;;;5050983;28;20194;-64
2022/05/05 14:03:45;;;;;;;17.23;13.10;;;;;;;;;;5050858;28;20309;-64
2022/05/05 14:06:13;;;;;;;14.50;12.03;;;;;;;;;;5050785;28;20273;-64
2022/05/05 14:14:10;;;;;;;14.20;11.10;;;;;;;;;;5050457;28;20632;-64
2022/05/05 14:16:39;;;;;;;14.13;11.03;;;;;;;;;;5032691;28;20624;-64
2022/05/05 14:19:06;;;;;;;13.73;10.80;;;;;;;;;;5050529;28;20260;-64
2022/05/05 14:21:33;;;;;;;13.27;11.00;;;;;;;;;;5050486;28;20558;-64
2022/05/05 14:24:01;;;;;;;13.13;11.00;;;;;;;;;;5050207;28;21124;-63
2022/05/05 14:26:28;;;;;;;14.47;12.37;;;;;;;;;;5050590;28;20284;-64
2022/05/05 14:28:54;;;;;;;15.23;12.43;;;;;;;;;;5050464;28;20226;-63
2022/05/05 14:31:22;;;;;;;17.10;13.30;;;;;;;;;;5050018;28;20602;-63
2022/05/05 14:33:49;;;;;;;20.27;13.83;;;;;;;;;;5050165;28;20171;-64
2022/05/05 14:36:16;;;;;;;17.23;13.83;;;;;;;;;;5050453;28;20719;-64
2022/05/05 14:38:43;;;;;;;17.80;14.43;;;;;;;;;;5049069;28;20217;-64
2022/05/05 14:41:10;;;;;;;18.27;14.73;;;;;;;;;;5029366;28;20211;-64
2022/05/05 14:43:37;;;;;;;19.30;15.63;;;;;;;;;;5029973;28;20585;-64
2022/05/05 14:46:03;;;;;;;20.87;15.87;;;;;;;;;;5029957;28;20270;-64
2022/05/05 14:48:31;;;;;;;22.03;15.80;;;;;;;;;;5030018;28;20230;-64
2022/05/05 14:51:00;;;;;;;18.37;14.83;;;;;;;;;;5028805;28;20551;-64
2022/05/05 14:53:27;;;;;;;19.30;13.50;;;;;;;;;;5029954;28;20192;-64
2022/05/05 14:55:53;;;;;;;16.07;13.10;;;;;;;;;;5030252;28;20211;-64
2022/05/05 14:58:20;;;;;;;17.70;13.53;;;;;;;;;;5029415;28;20196;-63
2022/05/05 15:00:47;;;;;;;17.17;14.10;;;;;;;;;;5029851;28;20203;-64
2022/05/05 15:03:14;;;;;;;16.63;13.17;;;;;;;;;;5029539;28;20217;-66
2022/05/05 15:05:41;;;;;;;19.53;14.53;;;;;;;;;;5029672;28;20261;-64
2022/05/05 15:08:08;;;;;;;19.93;15.83;;;;;;;;;;5029901;28;20196;-65
2022/05/05 15:10:35;;;;;;;19.03;16.13;;;;;;;;;;5012260;28;20199;-64
2022/05/05 15:13:02;;;;;;;21.33;16.63;;;;;;;;;;5029190;28;20199;-64
2022/05/05 15:15:34;;;;;;;20.53;15.93;;;;;;;;;;5011667;28;20639;-65
2022/05/05 15:18:01;;;;;;;25.10;18.43;;;;;;;;;;5027854;28;20199;-64
2022/05/05 15:20:28;;;;;;;24.13;18.80;;;;;;;;;;5029507;28;20651;-64
2022/05/05 15:22:57;;;;;;;21.07;16.73;;;;;;;;;;5029380;28;20218;-64
2022/05/05 15:25:24;;;;;;;24.03;17.17;;;;;;;;;;5028899;28;20227;-64
2022/05/05 15:27:51;;;;;;;24.17;17.33;;;;;;;;;;5027913;28;20279;-65
2022/05/05 15:30:18;;;;;;;21.37;17.10;;;;;;;;;;5029613;28;20199;-64
2022/05/05 15:32:45;;;;;;;27.40;19.33;;;;;;;;;;5029039;28;20206;-64
2022/05/05 15:35:12;;;;;;;19.20;15.13;;;;;;;;;;5029355;28;20728;-65
2022/05/05 15:37:40;;;;;;;17.33;13.63;;;;;;;;;;5029050;28;20226;-64